createdAt,value
2023-02-11T00:01:48.595Z,72.24
2023-02-11T00:04:15.594Z,71.34
2023-02-11T00:06:43.055Z,70.76
2023-02-11T00:09:13.604Z,70.18
2023-02-11T00:11:40.699Z,69.78
2023-02-11T00:14:08.015Z,69.35
2023-02-11T00:16:35.801Z,68.64
2023-02-11T00:19:05.149Z,68.07
2023-02-11T00:21:34.460Z,67.75
2023-02-11T00:24:01.823Z,67.71
2023-02-11T00:26:32.954Z,67.69
2023-02-11T00:29:00.478Z,67.69
2023-02-11T00:31:27.588Z,67.53
2023-02-11T00:33:55.212Z,67.47
2023-02-11T00:36:24.172Z,67.62
2023-02-11T00:38:57.235Z,67.61
2023-02-11T00:41:24.558Z,67.52
2023-02-11T00:43:52.103Z,67.82
2023-02-11T00:46:21.497Z,68.27
2023-02-11T00:48:54.299Z,68.73
2023-02-11T00:51:23.909Z,69.08
2023-02-11T00:53:50.763Z,69.19
2023-02-11T00:56:20.444Z,69.01
2023-02-11T00:58:47.412Z,68.85
2023-02-11T01:01:14.287Z,68.51
2023-02-11T01:03:43.598Z,68.51
2023-02-11T01:06:11.003Z,68.64
2023-02-11T01:08:38.732Z,68.40
2023-02-11T01:11:07.750Z,68.31
2023-02-11T01:13:36.845Z,68.54
2023-02-11T01:16:11.120Z,68.67
2023-02-11T01:18:38.261Z,68.83
2023-02-11T01:21:05.365Z,69.16
2023-02-11T01:23:32.450Z,69.35
2023-02-11T01:25:59.433Z,69.66
2023-02-11T01:28:31.834Z,69.81
2023-02-11T01:31:11.100Z,69.66
2023-02-11T01:33:38.403Z,68.84
2023-02-11T01:36:07.512Z,68.55
2023-02-11T01:38:35.394Z,68.12
2023-02-11T01:41:07.770Z,68.12
2023-02-11T01:43:39.744Z,68.06
2023-02-11T01:46:31.124Z,68.01
2023-02-11T01:49:10.637Z,68.14
2023-02-11T01:51:44.308Z,68.33
2023-02-11T01:54:40.991Z,68.65
2023-02-11T01:57:24.290Z,68.63
2023-02-11T02:00:08.181Z,68.58
2023-02-11T02:02:59.863Z,68.67
2023-02-11T02:05:51.600Z,68.33
2023-02-11T02:08:22.924Z,67.99
2023-02-11T02:10:56.145Z,67.63
2023-02-11T02:13:23.368Z,67.39
2023-02-11T02:15:54.091Z,66.98
2023-02-11T02:18:51.113Z,66.88
2023-02-11T02:21:56.458Z,66.92
2023-02-11T02:24:56.352Z,67.16
2023-02-11T02:27:37.800Z,66.65
2023-02-11T02:30:28.572Z,66.38
2023-02-11T02:33:07.963Z,65.68
2023-02-11T02:36:08.385Z,65.74
2023-02-11T02:38:53.464Z,65.35
2023-02-11T02:41:26.976Z,65.35
2023-02-11T02:43:53.792Z,65.16
2023-02-11T02:46:29.382Z,64.89
2023-02-11T02:49:02.000Z,64.72
2023-02-11T02:51:51.646Z,64.55
2023-02-11T02:54:35.261Z,64.55
2023-02-11T02:57:28.289Z,64.10
2023-02-11T03:00:13.974Z,64.30
2023-02-11T03:02:54.563Z,64.33
2023-02-11T03:05:23.408Z,64.64
2023-02-11T03:08:05.028Z,64.74
2023-02-11T03:10:41.282Z,64.79
2023-02-11T03:13:17.106Z,64.65
2023-02-11T03:15:49.009Z,64.48
2023-02-11T03:18:17.748Z,64.51
2023-02-11T03:20:54.243Z,64.38
2023-02-11T03:23:28.465Z,64.61
2023-02-11T03:25:57.820Z,64.64
2023-02-11T03:28:36.749Z,64.30
2023-02-11T03:31:22.302Z,64.29
2023-02-11T03:34:17.098Z,64.66
2023-02-11T03:36:50.594Z,64.44
2023-02-11T03:39:20.787Z,64.40
2023-02-11T03:41:48.294Z,64.63
2023-02-11T03:44:15.880Z,64.79
2023-02-11T03:46:50.713Z,64.65
2023-02-11T03:49:19.730Z,64.64
2023-02-11T03:51:48.384Z,64.89
2023-02-11T03:54:18.382Z,64.71
2023-02-11T03:56:53.315Z,64.81
2023-02-11T03:59:25.890Z,65.03
2023-02-11T04:01:53.245Z,65.37
2023-02-11T04:04:20.504Z,65.46
2023-02-11T04:06:52.785Z,65.60
2023-02-11T04:09:22.535Z,65.75
2023-02-11T04:11:51.364Z,65.83
2023-02-11T04:14:18.823Z,66.46
2023-02-11T04:16:45.899Z,66.88
2023-02-11T04:19:12.774Z,67.04
2023-02-11T04:21:45.290Z,67.43
2023-02-11T04:24:12.195Z,68.03
2023-02-11T04:26:40.619Z,68.13
2023-02-11T04:29:07.503Z,67.50
2023-02-11T04:31:35.491Z,67.38
2023-02-11T04:34:02.846Z,66.74
2023-02-11T04:36:30.032Z,66.27
2023-02-11T04:39:02.712Z,65.88
2023-02-11T04:41:29.901Z,65.56
2023-02-11T04:43:58.051Z,65.07
2023-02-11T04:46:25.278Z,64.77
2023-02-11T04:48:56.610Z,64.47
2023-02-11T04:51:24.213Z,64.11
2023-02-11T04:53:51.962Z,63.98
2023-02-11T04:56:19.114Z,64.29
2023-02-11T04:58:46.251Z,64.20
2023-02-11T05:01:14.075Z,63.70
2023-02-11T05:03:41.219Z,64.19
2023-02-11T05:06:09.141Z,64.36
2023-02-11T05:08:36.187Z,64.56
2023-02-11T05:11:04.751Z,64.47
2023-02-11T05:13:31.645Z,64.50
2023-02-11T05:15:59.876Z,64.33
2023-02-11T05:18:27.570Z,64.53
2023-02-11T05:20:54.633Z,64.93
2023-02-11T05:23:21.659Z,64.74
2023-02-11T05:25:49.096Z,64.69
2023-02-11T05:31:06.528Z,64.77
2023-02-11T05:33:33.539Z,65.13
2023-02-11T05:36:01.468Z,66.22
2023-02-11T05:38:33.523Z,66.61
2023-02-11T05:41:00.496Z,66.50
2023-02-11T05:43:27.317Z,66.52
2023-02-11T05:45:54.872Z,66.51
2023-02-11T05:48:22.948Z,66.21
2023-02-11T05:50:50.244Z,65.88
2023-02-11T05:53:17.246Z,65.06
2023-02-11T05:55:44.598Z,64.75
2023-02-11T05:58:11.392Z,64.55
2023-02-11T06:00:43.579Z,64.68
2023-02-11T06:03:10.500Z,64.72
2023-02-11T06:05:37.623Z,64.35
2023-02-11T06:08:10.298Z,63.84
2023-02-11T06:10:37.904Z,64.02
2023-02-11T06:13:04.901Z,63.71
2023-02-11T06:15:33.776Z,63.45
2023-02-11T06:18:01.012Z,63.51
2023-02-11T06:20:34.384Z,63.71
2023-02-11T06:23:01.468Z,63.58
2023-02-11T06:25:33.349Z,63.48
2023-02-11T06:28:00.321Z,63.15
2023-02-11T06:30:27.184Z,63.49
2023-02-11T06:32:54.360Z,63.78
2023-02-11T06:35:21.403Z,64.19
2023-02-11T06:37:49.200Z,64.02
2023-02-11T06:40:21.290Z,63.66
2023-02-11T06:42:51.092Z,63.53
2023-02-11T06:45:18.547Z,63.60
2023-02-11T06:47:51.305Z,64.00
2023-02-11T06:50:18.332Z,63.78
2023-02-11T06:52:46.159Z,63.23
2023-02-11T06:55:13.814Z,63.65
2023-02-11T06:57:41.855Z,63.05
2023-02-11T07:00:12.215Z,62.43
2023-02-11T07:02:46.413Z,62.68
2023-02-11T07:05:18.568Z,62.29
2023-02-11T07:07:45.482Z,61.93
2023-02-11T07:10:13.292Z,60.98
2023-02-11T07:12:40.836Z,60.59
2023-02-11T07:15:08.063Z,59.90
2023-02-11T07:17:35.456Z,59.76
2023-02-11T07:20:02.373Z,59.61
2023-02-11T07:22:29.843Z,58.87
2023-02-11T07:24:56.881Z,58.42
2023-02-11T07:27:24.872Z,58.71
2023-02-11T07:29:52.008Z,58.18
2023-02-11T07:32:19.071Z,57.57
2023-02-11T07:34:48.229Z,57.10
2023-02-11T07:37:15.401Z,56.77
2023-02-11T07:39:45.723Z,56.17
2023-02-11T07:42:12.498Z,55.85
2023-02-11T07:44:39.728Z,55.21
2023-02-11T07:47:11.672Z,55.29
2023-02-11T07:49:40.967Z,54.57
2023-02-11T07:52:07.928Z,54.27
2023-02-11T07:54:35.289Z,54.10
2023-02-11T07:57:02.556Z,53.51
2023-02-11T07:59:29.614Z,53.85
2023-02-11T08:01:56.507Z,53.49
2023-02-11T08:04:23.669Z,53.41
2023-02-11T08:06:52.338Z,52.78
2023-02-11T08:09:19.643Z,52.58
2023-02-11T08:11:47.977Z,52.64
2023-02-11T08:14:17.240Z,52.29
2023-02-11T08:16:45.095Z,51.91
2023-02-11T08:19:14.384Z,50.58
2023-02-11T08:21:46.952Z,50.55
2023-02-11T08:24:14.054Z,50.26
2023-02-11T08:26:40.944Z,50.44
2023-02-11T08:29:10.521Z,50.05
2023-02-11T08:31:39.662Z,49.19
2023-02-11T08:34:07.190Z,48.71
2023-02-11T08:36:35.542Z,48.48
2023-02-11T08:39:17.941Z,47.35
2023-02-11T08:41:51.302Z,46.47
2023-02-11T08:44:19.872Z,46.28
2023-02-11T08:46:47.003Z,46.13
2023-02-11T08:49:14.160Z,45.73
2023-02-11T08:51:41.015Z,45.69
2023-02-11T08:54:09.636Z,45.97
2023-02-11T08:56:37.531Z,45.90
2023-02-11T08:59:07.045Z,46.06
2023-02-11T09:01:34.014Z,46.11
2023-02-11T09:04:01.169Z,45.81
2023-02-11T09:06:28.580Z,44.99
2023-02-11T09:09:00.704Z,44.37
2023-02-11T09:11:30.123Z,44.60
2023-02-11T09:13:58.266Z,44.53
2023-02-11T09:16:27.939Z,44.47
2023-02-11T09:18:59.291Z,44.57
2023-02-11T09:21:27.188Z,44.16
2023-02-11T09:23:54.077Z,44.23
2023-02-11T09:26:23.163Z,44.83
2023-02-11T09:28:50.853Z,44.88
2023-02-11T09:31:20.611Z,45.13
2023-02-11T09:33:53.401Z,45.04
2023-02-11T09:36:22.427Z,45.27
2023-02-11T09:38:49.529Z,44.52
2023-02-11T09:41:22.627Z,45.02
2023-02-11T09:43:55.489Z,45.01
2023-02-11T09:46:22.842Z,45.48
2023-02-11T09:48:51.341Z,45.67
2023-02-11T09:51:30.215Z,45.99
2023-02-11T09:54:01.297Z,45.74
2023-02-11T09:56:29.195Z,46.09
2023-02-11T09:58:56.094Z,46.45
2023-02-11T10:01:49.076Z,46.47
2023-02-11T10:04:46.049Z,46.57
2023-02-11T10:07:32.151Z,47.09
2023-02-11T10:10:17.416Z,47.27
2023-02-11T10:12:56.816Z,47.83
2023-02-11T10:15:44.399Z,47.54
2023-02-11T10:18:50.621Z,47.76
2023-02-11T10:21:41.593Z,47.23
2023-02-11T10:24:10.259Z,47.04
2023-02-11T10:26:37.435Z,46.86
2023-02-11T10:29:26.805Z,47.22
2023-02-11T10:31:55.952Z,46.84
2023-02-11T10:34:23.997Z,47.63
2023-02-11T10:36:50.814Z,47.90
2023-02-11T10:39:18.870Z,48.12
2023-02-11T10:41:47.042Z,47.79
2023-02-11T10:44:47.625Z,48.13
2023-02-11T10:47:22.014Z,48.18
2023-02-11T10:49:49.213Z,48.43
2023-02-11T10:52:23.304Z,49.04
2023-02-11T10:55:11.081Z,48.92
2023-02-11T10:57:44.009Z,49.05
2023-02-11T11:00:25.703Z,49.11
2023-02-11T11:03:04.305Z,49.30
2023-02-11T11:05:36.083Z,49.61
2023-02-11T11:08:05.492Z,49.21
2023-02-11T11:10:46.421Z,49.36
2023-02-11T11:13:22.421Z,49.54
2023-02-11T11:16:06.174Z,49.78
2023-02-11T11:18:33.256Z,50.13
2023-02-11T11:21:10.761Z,50.63
2023-02-11T11:23:37.598Z,51.15
2023-02-11T11:26:11.224Z,51.38
2023-02-11T11:28:40.568Z,51.30
2023-02-11T11:31:15.136Z,51.59
2023-02-11T11:33:43.494Z,51.63
2023-02-11T11:36:12.364Z,51.57
2023-02-11T11:38:44.671Z,51.64
2023-02-11T11:41:25.393Z,51.86
2023-02-11T11:44:14.546Z,52.21
2023-02-11T11:46:42.092Z,52.31
2023-02-11T11:49:28.163Z,52.56
2023-02-11T11:52:09.394Z,52.91
2023-02-11T11:54:36.714Z,53.22
2023-02-11T11:57:10.458Z,53.01
2023-02-11T11:59:37.745Z,53.36
2023-02-11T12:02:10.936Z,53.31
2023-02-11T12:05:01.110Z,53.61
2023-02-11T12:07:32.474Z,53.94
2023-02-11T12:10:24.452Z,54.07
2023-02-11T12:13:10.256Z,54.68
2023-02-11T12:15:50.239Z,55.57
2023-02-11T12:18:55.000Z,55.52
2023-02-11T12:21:25.550Z,56.19
2023-02-11T12:24:30.064Z,56.36
2023-02-11T12:27:18.242Z,56.49
2023-02-11T12:29:57.268Z,56.33
2023-02-11T12:32:55.120Z,56.37
2023-02-11T12:35:31.131Z,57.24
2023-02-11T12:38:30.518Z,57.06
2023-02-11T12:41:16.000Z,57.53
2023-02-11T12:43:43.537Z,57.59
2023-02-11T12:46:14.494Z,57.29
2023-02-11T12:48:47.721Z,57.65
2023-02-11T12:51:33.494Z,58.37
2023-02-11T12:54:20.116Z,58.33
2023-02-11T12:57:06.777Z,58.88
2023-02-11T12:59:58.568Z,59.64
2023-02-11T13:02:46.898Z,60.62
2023-02-11T13:05:16.959Z,60.60
2023-02-11T13:07:45.435Z,60.67
2023-02-11T13:10:24.709Z,60.93
2023-02-11T13:13:10.608Z,61.44
2023-02-11T13:15:38.208Z,62.02
2023-02-11T13:18:19.199Z,62.49
2023-02-11T13:21:11.066Z,62.85
2023-02-11T13:23:46.151Z,63.17
2023-02-11T13:26:25.762Z,63.85
2023-02-11T13:28:56.965Z,64.82
2023-02-11T13:31:27.028Z,64.66
2023-02-11T13:33:54.243Z,65.05
2023-02-11T13:36:22.719Z,65.20
2023-02-11T13:38:56.765Z,65.12
2023-02-11T13:41:44.626Z,64.92
2023-02-11T13:44:11.557Z,64.98
2023-02-11T13:46:57.808Z,65.56
2023-02-11T13:49:42.026Z,66.54
2023-02-11T13:52:28.654Z,66.13
2023-02-11T13:54:58.100Z,65.76
2023-02-11T13:57:29.217Z,65.31
2023-02-11T13:59:57.978Z,65.10
2023-02-11T14:02:54.223Z,64.69
2023-02-11T14:05:53.798Z,65.52
2023-02-11T14:08:43.105Z,65.47
2023-02-11T14:11:28.837Z,65.44
2023-02-11T14:14:03.385Z,65.96
2023-02-11T14:16:38.004Z,65.81
2023-02-11T14:19:08.055Z,66.19
2023-02-11T14:21:36.418Z,66.30
2023-02-11T14:24:15.495Z,66.31
2023-02-11T14:26:47.669Z,66.49
2023-02-11T14:29:19.408Z,66.51
2023-02-11T14:32:08.377Z,66.95
2023-02-11T14:34:54.427Z,66.48
2023-02-11T14:37:38.171Z,66.36
2023-02-11T14:40:10.416Z,66.53
2023-02-11T14:42:37.736Z,66.56
2023-02-11T14:45:10.337Z,66.35
2023-02-11T14:47:42.861Z,66.29
2023-02-11T14:50:21.912Z,66.33
2023-02-11T14:52:54.080Z,66.71
2023-02-11T14:55:31.088Z,66.87
2023-02-11T14:58:14.297Z,67.32
2023-02-11T15:00:55.008Z,68.14
2023-02-11T15:03:35.645Z,68.83
2023-02-11T15:06:19.234Z,69.99
2023-02-11T15:09:16.053Z,70.69
2023-02-11T15:11:48.947Z,70.57
2023-02-11T15:14:28.914Z,69.98
2023-02-11T15:16:58.048Z,69.73
2023-02-11T15:19:34.785Z,70.00
2023-02-11T15:22:06.562Z,70.02
2023-02-11T15:24:35.281Z,70.08
2023-02-11T15:27:04.091Z,70.22
2023-02-11T15:29:40.223Z,70.42
2023-02-11T15:32:18.284Z,70.68
2023-02-11T15:34:45.878Z,71.53
2023-02-11T15:37:21.436Z,72.03
2023-02-11T15:39:48.382Z,71.78
2023-02-11T15:42:34.060Z,71.34
2023-02-11T15:45:20.137Z,71.00
2023-02-11T15:47:49.879Z,70.76
2023-02-11T15:50:24.925Z,70.68
2023-02-11T15:52:52.998Z,70.70
2023-02-11T15:55:20.170Z,70.84
2023-02-11T15:57:59.701Z,71.62
2023-02-11T16:00:37.291Z,72.88
2023-02-11T16:03:05.006Z,73.98
2023-02-11T16:05:42.949Z,74.31
2023-02-11T16:08:28.879Z,74.37
2023-02-11T16:11:07.944Z,74.12
2023-02-11T16:13:46.422Z,73.97
2023-02-11T16:16:32.851Z,74.13
2023-02-11T16:19:07.750Z,74.51
2023-02-11T16:21:41.784Z,75.00
2023-02-11T16:24:38.578Z,75.74
2023-02-11T16:27:24.726Z,76.39
2023-02-11T16:29:55.992Z,76.17
2023-02-11T16:32:26.278Z,75.87
2023-02-11T16:35:06.810Z,75.59
2023-02-11T16:37:38.221Z,75.48
2023-02-11T16:40:10.067Z,75.69
2023-02-11T16:42:40.717Z,76.58
2023-02-11T16:45:15.510Z,77.42
2023-02-11T16:47:45.597Z,77.48
2023-02-11T16:50:23.376Z,77.03
2023-02-11T16:52:54.697Z,76.29
2023-02-11T16:55:25.254Z,75.90
2023-02-11T16:57:57.023Z,75.70
2023-02-11T17:00:25.572Z,76.17
2023-02-11T17:02:55.529Z,76.29
2023-02-11T17:14:06.464Z,76.23
2023-02-11T17:16:33.565Z,75.51
2023-02-11T17:19:00.388Z,75.14
2023-02-11T17:21:29.892Z,74.74
2023-02-11T17:23:58.289Z,74.98
2023-02-11T17:26:26.380Z,75.68
2023-02-11T17:28:53.792Z,76.44
2023-02-11T17:31:21.521Z,76.90
2023-02-11T17:33:49.089Z,77.35
2023-02-11T17:36:16.145Z,77.44
2023-02-11T17:38:50.669Z,77.05
2023-02-11T17:41:23.843Z,77.10
2023-02-11T17:43:51.071Z,77.05
2023-02-11T17:46:18.402Z,77.66
2023-02-11T17:48:45.830Z,78.43
2023-02-11T17:51:24.194Z,79.11
2023-02-11T17:53:57.680Z,79.52
2023-02-11T17:56:24.813Z,79.54
2023-02-11T17:58:56.955Z,79.20
2023-02-11T18:01:32.331Z,78.57
2023-02-11T18:03:59.492Z,78.52
2023-02-11T18:06:28.440Z,78.66
2023-02-11T18:08:59.323Z,79.56
2023-02-11T18:11:27.419Z,80.17
2023-02-11T18:13:55.047Z,80.43
2023-02-11T18:16:23.182Z,80.05
2023-02-11T18:18:50.227Z,79.97
2023-02-11T18:21:18.428Z,80.68
2023-02-11T18:23:45.615Z,81.08
2023-02-11T18:26:12.926Z,81.23
2023-02-11T18:28:40.188Z,81.46
2023-02-11T18:31:08.193Z,82.06
2023-02-11T18:33:36.643Z,82.74
2023-02-11T18:36:07.507Z,83.78
2023-02-11T18:38:35.268Z,83.19
2023-02-11T18:41:02.807Z,82.81
2023-02-11T18:43:33.959Z,82.56
2023-02-11T18:46:01.899Z,83.47
2023-02-11T18:48:28.968Z,83.97
2023-02-11T18:50:56.465Z,85.03
2023-02-11T18:53:29.168Z,85.54
2023-02-11T18:55:56.107Z,85.38
2023-02-11T18:58:23.341Z,84.98
2023-02-11T19:00:50.331Z,84.55
2023-02-11T19:03:17.346Z,84.60
2023-02-11T19:05:45.981Z,85.73
2023-02-11T19:08:13.310Z,86.36
2023-02-11T19:10:42.380Z,86.40
2023-02-11T19:13:09.293Z,85.87
2023-02-11T19:15:45.119Z,86.17
2023-02-11T19:18:14.032Z,86.68
2023-02-11T19:20:42.225Z,87.14
2023-02-11T19:23:09.591Z,87.80
2023-02-11T19:25:36.958Z,88.00
2023-02-11T19:28:04.383Z,87.87
2023-02-11T19:30:31.745Z,87.63
2023-02-11T19:33:05.189Z,87.07
2023-02-11T19:35:35.131Z,87.75
2023-02-11T19:38:04.235Z,88.66
2023-02-11T19:40:31.670Z,89.02
2023-02-11T19:43:04.124Z,88.73
2023-02-11T19:45:31.127Z,88.27
2023-02-11T19:47:58.132Z,87.63
2023-02-11T19:50:24.970Z,87.75
2023-02-11T19:52:51.732Z,88.03
2023-02-11T19:55:18.851Z,88.69
2023-02-11T19:57:52.659Z,89.04
2023-02-11T20:00:19.967Z,89.41
2023-02-11T20:02:48.074Z,89.50
2023-02-11T20:05:20.539Z,89.48
2023-02-11T20:07:47.848Z,89.04
2023-02-11T20:10:15.398Z,89.52
2023-02-11T20:12:42.462Z,90.28
2023-02-11T20:15:09.681Z,91.10
2023-02-11T20:17:37.075Z,91.30
2023-02-11T20:20:06.181Z,91.71
2023-02-11T20:22:34.053Z,91.69
2023-02-11T20:25:01.010Z,91.76
2023-02-11T20:27:32.010Z,92.62
2023-02-11T20:29:58.881Z,93.21
2023-02-11T20:32:25.824Z,93.32
2023-02-11T20:34:52.697Z,92.97
2023-02-11T20:37:19.842Z,92.24
2023-02-11T20:39:46.995Z,92.79
2023-02-11T20:42:19.836Z,93.40
2023-02-11T20:44:46.691Z,93.28
2023-02-11T20:47:13.919Z,92.51
2023-02-11T20:49:41.172Z,91.97
2023-02-11T20:52:08.482Z,92.24
2023-02-11T20:54:35.701Z,92.00
2023-02-11T20:57:06.935Z,92.37
2023-02-11T20:59:34.216Z,92.41
2023-02-11T21:02:01.796Z,92.25
2023-02-11T21:04:29.907Z,91.99
2023-02-11T21:07:01.412Z,91.34
2023-02-11T21:09:30.474Z,90.97
2023-02-11T21:12:02.465Z,90.66
2023-02-11T21:14:29.880Z,91.36
2023-02-11T21:16:57.125Z,91.95
2023-02-11T21:19:29.366Z,91.94
2023-02-11T21:22:00.206Z,91.37
2023-02-11T21:24:27.573Z,90.91
2023-02-11T21:26:55.545Z,90.77
2023-02-11T21:29:22.990Z,91.23
2023-02-11T21:31:51.026Z,91.76
2023-02-11T21:40:36.688Z,90.90
2023-02-11T21:43:05.900Z,90.96
2023-02-11T21:45:34.297Z,91.76
2023-02-11T21:48:02.870Z,91.96
2023-02-11T21:50:31.149Z,91.21
2023-02-11T21:52:59.452Z,90.72
2023-02-11T21:55:27.662Z,90.98
2023-02-11T21:57:56.155Z,91.56
2023-02-11T22:00:24.877Z,92.14
2023-02-11T22:02:53.532Z,91.97
2023-02-11T22:05:22.014Z,91.59
2023-02-11T22:07:50.593Z,91.37
2023-02-11T22:10:21.226Z,91.75
2023-02-11T22:12:49.736Z,92.35
2023-02-11T22:15:23.424Z,92.26
2023-02-11T22:17:52.513Z,92.26
2023-02-11T22:20:20.997Z,91.89
2023-02-11T22:22:56.051Z,91.97
2023-02-11T22:25:24.213Z,92.13
2023-02-11T22:27:52.659Z,92.59
2023-02-11T22:30:20.948Z,93.43
2023-02-11T22:32:49.861Z,93.16
2023-02-11T22:35:18.088Z,92.84
2023-02-11T22:37:46.554Z,93.44
2023-02-11T22:40:14.988Z,93.10
2023-02-11T22:42:45.583Z,93.91
2023-02-11T22:45:13.977Z,95.31
2023-02-11T22:47:48.498Z,96.14
2023-02-11T22:50:16.937Z,96.35
2023-02-11T22:52:47.324Z,96.47
2023-02-11T22:55:15.779Z,95.88
2023-02-11T22:57:44.653Z,96.28
2023-02-11T23:00:19.773Z,97.18
2023-02-11T23:02:55.947Z,97.57
2023-02-11T23:05:24.454Z,96.99
2023-02-11T23:07:52.933Z,96.93
2023-02-11T23:10:21.831Z,96.95
2023-02-11T23:12:50.339Z,97.16
2023-02-11T23:15:18.792Z,97.88
2023-02-11T23:17:57.726Z,98.06
2023-02-11T23:20:25.903Z,97.05
2023-02-11T23:23:05.105Z,96.00
2023-02-11T23:25:33.847Z,95.93
2023-02-11T23:28:02.319Z,95.98
2023-02-11T23:30:37.632Z,96.59
2023-02-11T23:33:08.878Z,96.95
2023-02-11T23:35:37.253Z,96.83
2023-02-11T23:38:05.575Z,96.12
2023-02-11T23:40:33.912Z,94.79
2023-02-11T23:43:02.466Z,94.37
2023-02-11T23:45:36.044Z,94.86
2023-02-11T23:48:04.785Z,94.84
2023-02-11T23:50:39.197Z,93.95
2023-02-11T23:53:08.011Z,93.30
2023-02-11T23:55:41.186Z,92.51
2023-02-11T23:58:10.886Z,92.45
